メインページ
METAR-TAF:

METAR-TAF

空港 :

Terrace, ブリティッシュコロンビア州, カナダ

緯度: 54-28N, 経度: 128-35W, 海抜: 217m

現時点の気象観測

当レポートは2時間44分前の06:00(UTC)に作成
の風 8kt
気温 15°C
湿度 94%
気圧 1014 hPa
視程: 24.1km
高度800ftの雲はほとんどない
高度4000ftの雲は散在している
高度7500ftの千切れ雲あり

METAR: CYXT 030600Z 18008KT 15SM FEW008 SCT040 BKN075 15/14 A2995 RMK CF1CU3AC3 LAST STFD OBS/ NEXT 031300 UTC SLP145 DENSITY ALT 900FT

時間: 01:44 (08:44 UTC)

予報

当レポートは8時間6分前の00:38(UTC)に作成
予報は03日の 01時(UTC)から 03日の 05時(UTC)まで有効
の風 18kt
視程: 9.7km
高度700ftの雲はほとんどない
高度4000ftの千切れ雲あり
高度7000ftの曇り
小雨, 靄
03日の 01時(UTC)から 03日の 05時(UTC)まで一時的に
視程: 4.8km
高度700ftの千切れ雲あり
高度3000ftの曇り
小雨, 靄
03日の 03時(UTC)から 03日の 05時(UTC)まで徐々に
の風 10kt

TAF: CYXT 030038Z 0301/0305 18018KT 6SM -RA BR FEW007 BKN040 OVC070 TEMPO 0301/0305 3SM -RA BR BKN007 OVC030 BECMG 0303/0305 18010KT RMK NXT FCST WILL BE ISSUED AT 031445Z

4,000以上の空港の気象観測と天気予報(METAR報とTAF報)

利用可能な観測所は地図上に黄色い丸と赤い丸で示す。

丸の上にカーソルを重ねると観測所名を参照できる。

次にクリックすると気象観測と天気予報を参照できる。

マップの切り替え:黒色「×」印の緑ボタンをクリックして拡大、「-」印の緑ボタンをクリックして縮小、緑色の三角印をクリックして隣りの地図に切り替え


METAR-TAF: